createdAt,value
2022-12-12T00:01:31.685Z,91.40
2022-12-12T00:04:00.715Z,91.38
2022-12-12T00:06:29.656Z,91.34
2022-12-12T00:08:58.031Z,90.31
2022-12-12T00:11:27.661Z,90.88
2022-12-12T00:13:56.466Z,90.60
2022-12-12T00:16:26.074Z,90.54
2022-12-12T00:18:55.151Z,90.42
2022-12-12T00:21:29.793Z,90.35
2022-12-12T00:23:58.610Z,90.50
2022-12-12T00:26:30.179Z,88.95
2022-12-12T00:29:00.123Z,88.63
2022-12-12T00:31:29.937Z,88.10
2022-12-12T00:33:59.159Z,85.90
2022-12-12T00:36:30.522Z,86.17
2022-12-12T00:38:59.426Z,86.28
2022-12-12T00:41:28.237Z,85.47
2022-12-12T00:43:56.704Z,85.30
2022-12-12T00:46:26.962Z,87.28
2022-12-12T00:48:57.318Z,86.10
2022-12-12T00:51:28.355Z,86.34
2022-12-12T00:53:57.215Z,84.44
2022-12-12T00:56:26.277Z,84.45
2022-12-12T00:58:54.813Z,85.37
2022-12-12T01:01:26.543Z,84.38
2022-12-12T01:03:55.538Z,86.42
2022-12-12T01:06:24.594Z,86.74
2022-12-12T01:08:54.365Z,84.54
2022-12-12T01:11:23.378Z,84.02
2022-12-12T01:13:54.740Z,84.22
2022-12-12T01:16:24.163Z,84.58
2022-12-12T01:18:52.679Z,85.83
2022-12-12T01:21:22.518Z,86.22
2022-12-12T01:23:51.035Z,85.76
2022-12-12T01:26:23.647Z,85.84
2022-12-12T01:28:52.942Z,83.56
2022-12-12T01:31:22.197Z,82.40
2022-12-12T01:33:50.618Z,83.43
2022-12-12T01:36:21.682Z,83.67
2022-12-12T01:38:51.914Z,83.08
2022-12-12T01:41:21.210Z,83.70
2022-12-12T01:43:50.101Z,82.32
2022-12-12T01:46:43.443Z,82.17
2022-12-12T01:49:30.087Z,81.65
2022-12-12T01:52:02.359Z,81.30
2022-12-12T01:54:43.167Z,80.87
2022-12-12T01:57:21.987Z,81.42
2022-12-12T01:59:50.390Z,80.91
2022-12-12T02:02:19.292Z,80.04
2022-12-12T02:04:47.787Z,81.02
2022-12-12T02:07:18.689Z,81.36
2022-12-12T02:09:48.902Z,81.43
2022-12-12T02:12:17.395Z,81.27
2022-12-12T02:14:51.297Z,81.48
2022-12-12T02:18:03.401Z,79.71
2022-12-12T02:20:37.719Z,79.95
2022-12-12T02:23:25.425Z,79.47
2022-12-12T02:26:08.840Z,79.03
2022-12-12T02:29:01.871Z,78.62
2022-12-12T02:31:41.250Z,79.10
2022-12-12T02:34:35.281Z,78.25
2022-12-12T02:37:33.729Z,77.98
2022-12-12T02:40:40.038Z,77.61
2022-12-12T02:43:42.521Z,76.80
2022-12-12T02:46:43.334Z,75.33
2022-12-12T02:49:35.791Z,76.30
2022-12-12T02:52:04.563Z,76.15
2022-12-12T02:54:33.024Z,76.25
2022-12-12T02:57:03.561Z,75.23
2022-12-12T02:59:39.293Z,75.81
2022-12-12T03:02:25.966Z,74.87
2022-12-12T03:05:24.343Z,74.13
2022-12-12T03:08:11.223Z,74.67
2022-12-12T03:10:49.309Z,74.36
2022-12-12T03:13:41.948Z,72.69
2022-12-12T03:16:31.402Z,74.14
2022-12-12T03:19:02.876Z,73.66
2022-12-12T03:21:50.456Z,72.83
2022-12-12T03:24:36.703Z,73.42
2022-12-12T03:27:11.665Z,73.33
2022-12-12T03:30:14.928Z,72.22
2022-12-12T03:32:56.777Z,71.10
2022-12-12T03:35:37.296Z,71.19
2022-12-12T03:38:18.931Z,71.35
2022-12-12T03:40:52.953Z,71.71
2022-12-12T03:43:32.617Z,71.98
2022-12-12T03:46:11.352Z,71.76
2022-12-12T03:48:49.108Z,70.76
2022-12-12T03:51:27.557Z,71.70
2022-12-12T03:54:24.437Z,69.76
2022-12-12T03:57:20.267Z,70.59
2022-12-12T03:59:50.839Z,69.71
2022-12-12T04:02:37.369Z,69.01
2022-12-12T04:05:17.164Z,69.36
2022-12-12T04:08:03.516Z,67.60
2022-12-12T04:10:58.688Z,69.02
2022-12-12T04:13:40.354Z,69.75
2022-12-12T04:16:11.448Z,69.62
2022-12-12T04:19:03.249Z,68.58
2022-12-12T04:21:59.585Z,69.83
2022-12-12T04:24:36.808Z,69.53
2022-12-12T04:27:17.334Z,67.07
2022-12-12T04:30:08.481Z,68.02
2022-12-12T04:32:43.941Z,68.31
2022-12-12T04:35:15.677Z,67.86
2022-12-12T04:37:52.482Z,65.52
2022-12-12T04:40:26.343Z,66.34
2022-12-12T04:43:18.026Z,64.43
2022-12-12T04:45:58.511Z,63.93
2022-12-12T04:48:43.644Z,67.31
2022-12-12T04:51:17.700Z,66.19
2022-12-12T04:53:52.278Z,66.54
2022-12-12T04:56:27.769Z,65.38
2022-12-12T04:58:56.444Z,65.56
2022-12-12T05:01:36.559Z,66.57
2022-12-12T05:04:19.969Z,64.42
2022-12-12T05:06:54.869Z,63.93
2022-12-12T05:09:23.291Z,64.88
2022-12-12T05:11:51.662Z,65.98
2022-12-12T05:14:20.829Z,64.94
2022-12-12T05:16:57.798Z,65.12
2022-12-12T05:19:26.208Z,64.83
2022-12-12T05:21:54.499Z,64.57
2022-12-12T05:24:22.821Z,62.58
2022-12-12T05:26:51.175Z,62.68
2022-12-12T05:29:19.472Z,63.34
2022-12-12T05:31:48.023Z,63.74
2022-12-12T05:34:16.347Z,61.74
2022-12-12T05:36:44.668Z,65.36
2022-12-12T05:39:13.025Z,65.03
2022-12-12T05:41:41.340Z,64.07
2022-12-12T05:44:09.785Z,63.38
2022-12-12T05:46:38.256Z,64.96
2022-12-12T05:49:06.721Z,61.17
2022-12-12T05:51:35.095Z,59.82
2022-12-12T05:54:03.443Z,58.40
2022-12-12T05:56:31.844Z,60.13
2022-12-12T05:59:00.157Z,61.94
2022-12-12T06:01:28.462Z,61.02
2022-12-12T06:03:56.993Z,61.01
2022-12-12T06:06:25.630Z,61.04
2022-12-12T06:08:53.963Z,61.75
2022-12-12T06:11:22.316Z,59.53
2022-12-12T06:13:50.640Z,60.28
2022-12-12T06:16:21.247Z,61.24
2022-12-12T06:18:54.258Z,60.98
2022-12-12T06:21:23.193Z,60.09
2022-12-12T06:23:51.784Z,58.54
2022-12-12T06:26:21.406Z,59.50
2022-12-12T06:28:50.209Z,58.25
2022-12-12T06:31:19.396Z,60.82
2022-12-12T06:33:47.797Z,59.39
2022-12-12T06:36:24.808Z,58.89
2022-12-12T06:38:58.307Z,58.58
2022-12-12T06:41:30.870Z,59.49
2022-12-12T06:43:59.419Z,56.85
2022-12-12T06:46:30.293Z,57.59
2022-12-12T06:48:59.524Z,56.34
2022-12-12T06:51:32.908Z,58.34
2022-12-12T06:54:01.299Z,58.18
2022-12-12T06:56:29.649Z,58.76
2022-12-12T06:59:00.616Z,57.64
2022-12-12T07:01:29.074Z,58.51
2022-12-12T07:03:57.620Z,58.08
2022-12-12T07:06:26.763Z,58.96
2022-12-12T07:08:55.189Z,57.60
2022-12-12T07:11:25.491Z,58.66
2022-12-12T07:13:55.663Z,59.20
2022-12-12T07:16:24.767Z,59.21
2022-12-12T07:18:53.162Z,58.85
2022-12-12T07:21:22.214Z,59.20
2022-12-12T07:23:50.550Z,58.66
2022-12-12T07:26:21.820Z,58.92
2022-12-12T07:28:52.486Z,58.44
2022-12-12T07:31:25.670Z,60.39
2022-12-12T07:33:55.499Z,58.81
2022-12-12T07:36:24.140Z,59.83
2022-12-12T07:38:53.030Z,58.85
2022-12-12T07:41:21.851Z,60.09
2022-12-12T07:43:50.850Z,59.31
2022-12-12T07:46:22.735Z,57.80
2022-12-12T07:48:51.604Z,58.71
2022-12-12T07:51:20.987Z,59.48
2022-12-12T07:53:49.364Z,59.67
2022-12-12T07:56:19.760Z,58.50
2022-12-12T07:58:48.137Z,59.32
2022-12-12T08:01:23.304Z,59.88
2022-12-12T08:03:52.330Z,59.38
2022-12-12T08:06:22.855Z,58.20
2022-12-12T08:08:52.955Z,58.48
2022-12-12T08:11:24.168Z,59.47
2022-12-12T08:13:53.806Z,58.77
2022-12-12T08:16:25.598Z,58.97
2022-12-12T08:18:59.174Z,59.50
2022-12-12T08:21:28.550Z,59.61
2022-12-12T08:24:01.211Z,58.59
2022-12-12T08:26:31.078Z,58.42
2022-12-12T08:28:59.948Z,59.08
2022-12-12T08:31:29.066Z,59.42
2022-12-12T08:33:57.935Z,58.65
2022-12-12T08:36:32.216Z,59.51
2022-12-12T08:39:06.146Z,58.85
2022-12-12T08:41:37.601Z,59.46
2022-12-12T08:44:06.393Z,58.94
2022-12-12T08:46:35.519Z,59.95
2022-12-12T08:49:03.870Z,59.22
2022-12-12T08:51:32.224Z,59.43
2022-12-12T08:54:00.558Z,59.67
2022-12-12T08:56:28.874Z,58.68
2022-12-12T08:58:57.317Z,58.55
2022-12-12T09:01:28.420Z,59.97
2022-12-12T09:03:58.482Z,59.45
2022-12-12T09:06:27.966Z,59.70
2022-12-12T09:08:58.090Z,59.16
2022-12-12T09:11:26.958Z,59.27
2022-12-12T09:13:55.376Z,59.22
2022-12-12T09:16:27.253Z,58.26
2022-12-12T09:18:55.641Z,59.10
2022-12-12T09:21:24.357Z,59.26
2022-12-12T09:23:52.741Z,59.12
2022-12-12T09:26:21.083Z,59.48
2022-12-12T09:28:50.390Z,60.03
2022-12-12T09:31:18.748Z,59.30
2022-12-12T09:33:47.287Z,60.62
2022-12-12T09:36:15.999Z,60.15
2022-12-12T09:38:45.094Z,60.14
2022-12-12T09:41:19.644Z,60.88
2022-12-12T09:43:56.894Z,60.61
2022-12-12T09:46:35.662Z,60.81
2022-12-12T09:49:23.007Z,60.74
2022-12-12T09:51:52.742Z,60.64
2022-12-12T09:54:23.861Z,61.30
2022-12-12T09:57:25.731Z,61.44
2022-12-12T10:00:09.453Z,62.18
2022-12-12T10:03:09.764Z,61.89
2022-12-12T10:06:13.404Z,61.98
2022-12-12T10:09:18.655Z,62.23
2022-12-12T10:11:56.882Z,62.19
2022-12-12T10:14:46.349Z,62.14
2022-12-12T10:17:33.665Z,62.63
2022-12-12T10:20:25.861Z,62.39
2022-12-12T10:23:20.304Z,62.38
2022-12-12T10:25:59.981Z,63.10
2022-12-12T10:28:31.718Z,63.09
2022-12-12T10:31:15.532Z,63.31
2022-12-12T10:33:58.749Z,63.57
2022-12-12T10:37:01.015Z,64.33
2022-12-12T10:39:50.176Z,64.64
2022-12-12T10:42:29.723Z,64.46
2022-12-12T10:45:21.533Z,64.70
2022-12-12T10:47:50.521Z,64.98
2022-12-12T10:50:44.103Z,64.90
2022-12-12T10:53:13.738Z,65.23
2022-12-12T10:55:59.950Z,65.60
2022-12-12T10:58:37.517Z,65.40
2022-12-12T11:01:32.962Z,65.92
2022-12-12T11:04:08.458Z,66.57
2022-12-12T11:06:41.853Z,67.96
2022-12-12T11:09:18.872Z,68.16
2022-12-12T11:12:14.990Z,68.39
2022-12-12T11:14:50.509Z,67.83
2022-12-12T11:17:29.633Z,68.16
2022-12-12T11:20:04.872Z,68.75
2022-12-12T11:22:34.922Z,68.72
2022-12-12T11:25:03.507Z,68.48
2022-12-12T11:27:39.307Z,68.45
2022-12-12T11:30:24.046Z,68.76
2022-12-12T11:32:55.834Z,69.18
2022-12-12T11:35:33.145Z,69.69
2022-12-12T11:38:20.828Z,69.56
2022-12-12T11:41:06.873Z,68.59
2022-12-12T11:43:55.586Z,68.49
2022-12-12T11:46:32.507Z,68.51
2022-12-12T11:49:04.142Z,68.83
2022-12-12T11:51:41.368Z,68.69
2022-12-12T11:54:16.544Z,68.69
2022-12-12T11:57:23.233Z,68.74
2022-12-12T12:00:22.053Z,68.48
2022-12-12T12:03:28.791Z,68.48
2022-12-12T12:05:59.769Z,68.17
2022-12-12T12:08:45.277Z,67.98
2022-12-12T12:11:58.509Z,67.98
2022-12-12T12:14:47.840Z,67.49
2022-12-12T12:17:18.881Z,67.32
2022-12-12T12:19:49.765Z,67.24
2022-12-12T12:22:23.713Z,67.47
2022-12-12T12:25:26.062Z,67.23
2022-12-12T12:28:06.223Z,66.52
2022-12-12T12:30:52.574Z,66.73
2022-12-12T12:33:40.840Z,66.59
2022-12-12T12:36:26.242Z,66.57
2022-12-12T12:39:13.109Z,66.42
2022-12-12T12:42:16.364Z,66.46
2022-12-12T12:44:49.322Z,66.65
2022-12-12T12:47:42.438Z,66.65
2022-12-12T12:50:28.655Z,66.10
2022-12-12T12:53:01.934Z,66.68
2022-12-12T12:55:46.509Z,66.45
2022-12-12T12:58:24.999Z,66.51
2022-12-12T13:01:20.467Z,66.43
2022-12-12T13:04:02.714Z,66.15
2022-12-12T13:06:46.070Z,66.48
2022-12-12T13:09:14.486Z,65.90
2022-12-12T13:11:47.018Z,65.65
2022-12-12T13:14:26.940Z,65.44
2022-12-12T13:17:01.380Z,65.43
2022-12-12T13:19:37.058Z,65.18
2022-12-12T13:22:18.424Z,65.51
2022-12-12T13:25:09.995Z,65.22
2022-12-12T13:27:46.754Z,65.59
2022-12-12T13:30:29.244Z,65.42
2022-12-12T13:33:15.591Z,65.22
2022-12-12T13:35:52.178Z,65.43
2022-12-12T13:38:27.639Z,65.88
2022-12-12T13:40:59.350Z,65.72
2022-12-12T13:43:35.318Z,65.56
2022-12-12T13:46:22.319Z,64.14
2022-12-12T13:49:03.530Z,64.27
2022-12-12T13:51:32.481Z,64.23
2022-12-12T13:54:13.801Z,64.46
2022-12-12T13:56:43.867Z,63.37
2022-12-12T13:59:24.434Z,63.63
2022-12-12T14:02:22.191Z,64.60
2022-12-12T14:05:22.370Z,64.35
2022-12-12T14:08:03.372Z,64.09
2022-12-12T14:10:37.768Z,64.14
2022-12-12T14:13:32.531Z,64.92
2022-12-12T14:16:15.502Z,65.25
2022-12-12T14:19:06.418Z,64.86
2022-12-12T14:21:49.174Z,65.05
2022-12-12T14:24:35.852Z,64.80
2022-12-12T14:27:05.841Z,64.94
2022-12-12T14:29:36.684Z,64.43
2022-12-12T14:32:14.688Z,64.77
2022-12-12T14:35:01.689Z,64.84
2022-12-12T14:37:39.801Z,64.77
2022-12-12T14:40:49.520Z,64.63
2022-12-12T14:43:28.291Z,64.63
2022-12-12T14:46:02.193Z,64.77
2022-12-12T14:48:31.503Z,64.89
2022-12-12T14:51:13.216Z,64.92
2022-12-12T14:53:49.731Z,64.87
2022-12-12T14:56:29.827Z,65.39
2022-12-12T14:59:05.928Z,65.74
2022-12-12T15:01:37.473Z,65.90
2022-12-12T15:04:12.561Z,65.63
2022-12-12T15:06:45.653Z,65.81
2022-12-12T15:09:17.049Z,66.01
2022-12-12T15:11:46.899Z,66.26
2022-12-12T15:14:29.184Z,66.35
2022-12-12T15:17:04.009Z,66.40
2022-12-12T15:19:41.221Z,67.53
2022-12-12T15:22:34.808Z,66.91
2022-12-12T15:25:18.753Z,67.04
2022-12-12T15:27:55.771Z,67.49
2022-12-12T15:30:30.585Z,68.78
2022-12-12T15:33:00.940Z,69.20
2022-12-12T15:35:29.849Z,68.42
2022-12-12T15:38:02.781Z,68.04
2022-12-12T15:40:38.602Z,67.75
2022-12-12T15:43:12.996Z,67.45
2022-12-12T15:45:44.855Z,67.38
2022-12-12T15:48:18.456Z,66.82
2022-12-12T15:50:46.921Z,66.68
2022-12-12T15:53:41.984Z,67.01
2022-12-12T15:56:23.799Z,67.21
2022-12-12T15:58:55.891Z,67.34
2022-12-12T16:01:31.899Z,67.61
2022-12-12T16:04:12.717Z,67.51
2022-12-12T16:06:47.358Z,67.56
2022-12-12T16:09:26.692Z,67.63
2022-12-12T16:11:56.808Z,67.72
2022-12-12T16:14:38.640Z,67.58
2022-12-12T16:17:25.321Z,67.46
2022-12-12T16:20:04.365Z,67.49
2022-12-12T16:22:43.560Z,67.84
2022-12-12T16:25:20.587Z,68.01
2022-12-12T16:27:56.180Z,67.76
2022-12-12T16:30:25.273Z,68.33
2022-12-12T16:32:54.965Z,68.34
2022-12-12T16:35:25.578Z,68.46
2022-12-12T16:37:54.425Z,68.52
2022-12-12T16:40:23.407Z,68.24
2022-12-12T16:43:09.643Z,68.77
2022-12-12T16:45:39.816Z,68.42
2022-12-12T16:48:26.179Z,69.12
2022-12-12T16:50:59.950Z,68.08
2022-12-12T16:53:28.462Z,68.37
2022-12-12T16:55:57.367Z,68.59
2022-12-12T16:58:25.870Z,68.38
2022-12-12T17:00:55.488Z,68.73
2022-12-12T17:03:24.858Z,68.91
2022-12-12T17:05:53.685Z,68.61
2022-12-12T17:08:22.160Z,68.64
2022-12-12T17:10:52.001Z,68.69
2022-12-12T17:13:27.389Z,69.12
2022-12-12T17:15:56.657Z,69.16
2022-12-12T17:18:25.156Z,69.44
2022-12-12T17:20:53.470Z,70.12
2022-12-12T17:23:29.998Z,70.51
2022-12-12T17:26:04.063Z,69.74
2022-12-12T17:28:34.989Z,69.51
2022-12-12T17:31:04.346Z,69.45
2022-12-12T17:33:32.670Z,69.39
2022-12-12T17:36:03.957Z,70.87
2022-12-12T17:38:32.437Z,71.41
2022-12-12T17:41:05.221Z,69.88
2022-12-12T17:43:34.161Z,69.78
2022-12-12T17:46:05.921Z,70.31
2022-12-12T17:48:36.398Z,69.60
2022-12-12T17:51:07.381Z,69.64
2022-12-12T17:53:39.190Z,69.64
2022-12-12T17:56:13.075Z,69.77
2022-12-12T17:58:44.308Z,69.34
2022-12-12T18:01:17.844Z,69.70
2022-12-12T18:03:46.886Z,69.05
2022-12-12T18:06:16.524Z,69.84
2022-12-12T18:08:45.618Z,69.73
2022-12-12T18:11:17.230Z,69.92
2022-12-12T18:13:49.391Z,69.78
2022-12-12T18:16:19.529Z,69.76
2022-12-12T18:18:47.941Z,70.07
2022-12-12T18:21:43.335Z,70.19
2022-12-12T18:24:08.066Z,71.04
2022-12-12T18:26:36.408Z,70.88
2022-12-12T18:29:08.180Z,70.25
2022-12-12T18:31:37.144Z,70.44
2022-12-12T18:34:06.042Z,70.59
2022-12-12T18:36:34.473Z,70.72
2022-12-12T18:39:06.595Z,70.41
2022-12-12T18:41:37.712Z,70.46
2022-12-12T18:44:08.327Z,70.91
2022-12-12T18:46:42.815Z,70.55
2022-12-12T18:49:16.193Z,70.77
2022-12-12T18:51:46.553Z,70.79
2022-12-12T18:54:16.349Z,70.92
2022-12-12T18:56:46.719Z,71.11
2022-12-12T18:59:16.154Z,70.83
2022-12-12T19:01:44.972Z,70.83
2022-12-12T19:04:19.304Z,70.78
2022-12-12T19:06:51.472Z,71.28
2022-12-12T19:09:21.305Z,71.74
2022-12-12T19:11:49.928Z,71.51
2022-12-12T19:14:18.885Z,71.35
2022-12-12T19:16:47.326Z,72.19
2022-12-12T19:19:16.510Z,71.70
2022-12-12T19:21:44.975Z,71.83
2022-12-12T19:24:13.748Z,72.18
2022-12-12T19:26:45.254Z,71.85
2022-12-12T19:29:21.770Z,71.99
2022-12-12T19:31:53.898Z,71.47
2022-12-12T19:34:27.210Z,72.07
2022-12-12T19:36:55.679Z,71.23
2022-12-12T19:39:24.010Z,71.24
2022-12-12T19:41:52.594Z,72.07
2022-12-12T19:44:21.088Z,73.03
2022-12-12T19:46:49.674Z,71.23
2022-12-12T19:49:18.317Z,71.45
2022-12-12T19:51:47.161Z,72.50
2022-12-12T19:54:18.523Z,71.60
2022-12-12T19:56:48.116Z,71.26
2022-12-12T19:59:18.598Z,71.41
2022-12-12T20:01:47.792Z,71.19
2022-12-12T20:04:26.551Z,71.16
2022-12-12T20:06:54.916Z,71.61
2022-12-12T20:09:29.027Z,71.51
2022-12-12T20:11:59.261Z,71.90
2022-12-12T20:14:31.304Z,71.90
2022-12-12T20:17:00.455Z,72.37
2022-12-12T20:19:29.049Z,71.48
2022-12-12T20:22:02.547Z,71.47
2022-12-12T20:24:33.531Z,71.60
2022-12-12T20:27:04.435Z,71.97
2022-12-12T20:29:33.152Z,71.50
2022-12-12T20:32:02.594Z,71.77
2022-12-12T20:34:31.246Z,72.10
2022-12-12T20:36:59.709Z,71.50
2022-12-12T20:39:28.176Z,71.81
2022-12-12T20:41:58.404Z,71.55
2022-12-12T20:44:26.862Z,71.57
2022-12-12T20:46:55.376Z,71.98
2022-12-12T20:49:24.960Z,71.62
2022-12-12T20:51:55.816Z,71.40
2022-12-12T20:54:25.201Z,71.87
2022-12-12T20:56:55.247Z,72.41
2022-12-12T20:59:23.822Z,72.27
2022-12-12T21:01:53.017Z,73.16
2022-12-12T21:04:22.092Z,73.57
2022-12-12T21:06:52.237Z,73.99
2022-12-12T21:09:25.524Z,74.03
2022-12-12T21:11:57.344Z,74.41
2022-12-12T21:14:27.576Z,74.25
2022-12-12T21:16:56.068Z,75.08
2022-12-12T21:19:25.181Z,74.96
2022-12-12T21:21:54.829Z,74.63
2022-12-12T21:24:23.763Z,73.43
2022-12-12T21:26:52.357Z,74.70
2022-12-12T21:29:21.136Z,74.01
2022-12-12T21:31:52.074Z,74.92
2022-12-12T21:34:24.787Z,74.99
2022-12-12T21:36:57.660Z,75.15
2022-12-12T21:39:28.630Z,75.35
2022-12-12T21:41:57.464Z,75.28
2022-12-12T21:44:26.489Z,75.98
2022-12-12T21:46:54.851Z,75.66
2022-12-12T21:49:41.141Z,76.20
2022-12-12T21:52:17.767Z,74.72
2022-12-12T21:54:46.089Z,75.26
2022-12-12T21:57:14.406Z,76.34
2022-12-12T21:59:42.979Z,76.88
2022-12-12T22:02:14.512Z,75.96
2022-12-12T22:04:42.907Z,76.74
2022-12-12T22:07:13.305Z,76.35
2022-12-12T22:09:42.438Z,76.30
2022-12-12T22:12:10.773Z,75.96
2022-12-12T22:14:39.250Z,76.67
2022-12-12T22:17:07.710Z,76.34
2022-12-12T22:22:17.523Z,77.29
2022-12-12T22:24:45.866Z,77.12
2022-12-12T22:27:14.155Z,77.73
2022-12-12T22:29:42.583Z,77.89
2022-12-12T22:32:11.069Z,79.12
2022-12-12T22:34:39.443Z,80.12
2022-12-12T22:37:07.747Z,79.46
2022-12-12T22:39:36.763Z,79.67
2022-12-12T22:42:05.224Z,79.82
2022-12-12T22:44:33.561Z,80.43
2022-12-12T22:47:02.195Z,79.49
2022-12-12T22:49:30.585Z,78.24
2022-12-12T22:51:59.565Z,77.96
2022-12-12T22:54:28.573Z,77.85
2022-12-12T22:56:57.097Z,78.43
2022-12-12T22:59:25.933Z,78.66
2022-12-12T23:01:54.386Z,78.34
2022-12-12T23:04:22.804Z,80.83
2022-12-12T23:06:51.182Z,81.02
2022-12-12T23:09:23.154Z,81.21
2022-12-12T23:11:51.558Z,82.19
2022-12-12T23:14:23.720Z,83.03
2022-12-12T23:16:53.213Z,82.72
2022-12-12T23:19:27.183Z,82.20
2022-12-12T23:21:56.009Z,82.60
2022-12-12T23:24:24.357Z,81.54
2022-12-12T23:26:53.196Z,81.22
2022-12-12T23:29:21.923Z,81.73
2022-12-12T23:31:50.384Z,81.47
2022-12-12T23:34:23.786Z,80.97
2022-12-12T23:36:54.827Z,80.80
2022-12-12T23:39:23.852Z,80.30
2022-12-12T23:41:52.378Z,80.51
2022-12-12T23:44:23.381Z,79.32
2022-12-12T23:46:52.861Z,80.16
2022-12-12T23:49:24.150Z,80.78
2022-12-12T23:51:57.709Z,81.13
2022-12-12T23:54:35.905Z,81.62
2022-12-12T23:57:04.771Z,82.23
2022-12-12T23:59:33.067Z,82.08
